sensor_id;sensor_type;location;lat;lon;timestamp;pressure;altitude;pressure_sealevel;temperature;humidity
8699;BME280;4386;51.236;6.742;2023-03-14T17:13:42;100187.00;;;8.59;47.51
8699;BME280;4386;51.236;6.742;2023-03-14T17:14:45;100193.13;;;8.60;47.66
8699;BME280;4386;51.236;6.742;2023-03-14T17:15:52;100197.31;;;8.62;48.39
8699;BME280;4386;51.236;6.742;2023-03-14T17:16:55;100195.13;;;8.67;48.53
8699;BME280;4386;51.236;6.742;2023-03-14T17:17:57;100200.19;;;8.70;48.31
8699;BME280;4386;51.236;6.742;2023-03-14T17:19:00;100208.59;;;8.75;48.21
8699;BME280;4386;51.236;6.742;2023-03-14T17:20:03;100206.41;;;8.80;48.31
8699;BME280;4386;51.236;6.742;2023-03-14T17:21:06;100203.53;;;8.83;48.44
8699;BME280;4386;51.236;6.742;2023-03-14T17:22:08;100212.91;;;8.87;48.41
8699;BME280;4386;51.236;6.742;2023-03-14T17:23:24;100205.47;;;8.93;48.66
8699;BME280;4386;51.236;6.742;2023-03-14T17:24:27;100216.75;;;8.95;48.61
8699;BME280;4386;51.236;6.742;2023-03-14T17:25:30;100215.66;;;8.97;48.55
8699;BME280;4386;51.236;6.742;2023-03-14T17:26:32;100226.13;;;8.99;48.56
8699;BME280;4386;51.236;6.742;2023-03-14T17:27:34;100235.59;;;9.01;48.35
8699;BME280;4386;51.236;6.742;2023-03-14T17:28:36;100235.34;;;9.04;48.48
8699;BME280;4386;51.236;6.742;2023-03-14T17:29:40;100236.91;;;9.07;48.77
8699;BME280;4386;51.236;6.742;2023-03-14T17:30:43;100239.28;;;9.10;48.79
8699;BME280;4386;51.236;6.742;2023-03-14T17:31:46;100250.59;;;9.12;48.92
8699;BME280;4386;51.236;6.742;2023-03-14T17:32:48;100249.88;;;9.10;48.87
8699;BME280;4386;51.236;6.742;2023-03-14T17:33:51;100261.28;;;9.10;48.75
8699;BME280;4386;51.236;6.742;2023-03-14T17:34:52;100257.69;;;9.11;48.67
8699;BME280;4386;51.236;6.742;2023-03-14T17:35:55;100265.72;;;9.10;48.67
8699;BME280;4386;51.236;6.742;2023-03-14T17:36:57;100271.00;;;9.10;48.31
8699;BME280;4386;51.236;6.742;2023-03-14T17:37:59;100271.25;;;9.07;48.04
8699;BME280;4386;51.236;6.742;2023-03-14T17:39:02;100264.41;;;9.04;48.14
8699;BME280;4386;51.236;6.742;2023-03-14T17:40:06;100276.94;;;9.02;47.99
8699;BME280;4386;51.236;6.742;2023-03-14T17:41:09;100280.66;;;9.00;47.94
8699;BME280;4386;51.236;6.742;2023-03-14T17:42:12;100283.41;;;8.98;47.78
8699;BME280;4386;51.236;6.742;2023-03-14T17:43:14;100280.88;;;8.97;47.74
8699;BME280;4386;51.236;6.742;2023-03-14T17:44:17;100276.69;;;8.94;47.54
8699;BME280;4386;51.236;6.742;2023-03-14T17:45:21;100281.25;;;8.92;47.67
8699;BME280;4386;51.236;6.742;2023-03-14T17:46:23;100286.63;;;8.90;47.54
8699;BME280;4386;51.236;6.742;2023-03-14T17:47:27;100287.72;;;8.88;47.52
8699;BME280;4386;51.236;6.742;2023-03-14T17:48:28;100286.88;;;8.87;47.83
8699;BME280;4386;51.236;6.742;2023-03-14T17:49:31;100289.66;;;8.86;47.57
8699;BME280;4386;51.236;6.742;2023-03-14T17:50:32;100292.31;;;8.86;48.13
8699;BME280;4386;51.236;6.742;2023-03-14T17:51:35;100302.13;;;8.84;48.12
8699;BME280;4386;51.236;6.742;2023-03-14T17:52:38;100299.50;;;8.84;47.67
8699;BME280;4386;51.236;6.742;2023-03-14T17:53:40;100310.19;;;8.82;48.07
8699;BME280;4386;51.236;6.742;2023-03-14T17:54:42;100305.84;;;8.81;47.74
8699;BME280;4386;51.236;6.742;2023-03-14T17:55:46;100312.84;;;8.82;48.32
8699;BME280;4386;51.236;6.742;2023-03-14T17:56:49;100320.03;;;8.80;48.19
8699;BME280;4386;51.236;6.742;2023-03-14T17:57:51;100317.38;;;8.80;48.14
8699;BME280;4386;51.236;6.742;2023-03-14T17:58:55;100317.38;;;8.80;48.31
8699;BME280;4386;51.236;6.742;2023-03-14T17:59:57;100318.22;;;8.81;48.35
8699;BME280;4386;51.236;6.742;2023-03-14T18:01:08;100317.38;;;8.80;48.60
8699;BME280;4386;51.236;6.742;2023-03-14T18:02:10;100321.84;;;8.80;48.81
8699;BME280;4386;51.236;6.742;2023-03-14T18:03:14;100319.31;;;8.78;48.93
8699;BME280;4386;51.236;6.742;2023-03-14T18:04:16;100326.28;;;8.79;48.79
8699;BME280;4386;51.236;6.742;2023-03-14T18:05:24;100330.59;;;8.80;48.50
8699;BME280;4386;51.236;6.742;2023-03-14T18:06:26;100333.38;;;8.79;49.19
8699;BME280;4386;51.236;6.742;2023-03-14T18:07:32;100337.69;;;8.80;48.95
8699;BME280;4386;51.236;6.742;2023-03-14T18:08:35;100344.78;;;8.79;49.16
8699;BME280;4386;51.236;6.742;2023-03-14T18:09:38;100347.41;;;8.79;49.09
8699;BME280;4386;51.236;6.742;2023-03-14T18:10:40;100359.66;;;8.80;49.13
8699;BME280;4386;51.236;6.742;2023-03-14T18:11:43;100358.00;;;8.79;49.32
8699;BME280;4386;51.236;6.742;2023-03-14T18:12:44;100360.63;;;8.79;49.48
8699;BME280;4386;51.236;6.742;2023-03-14T18:13:47;100368.56;;;8.79;49.77
8699;BME280;4386;51.236;6.742;2023-03-14T18:14:50;100371.31;;;8.78;49.80
8699;BME280;4386;51.236;6.742;2023-03-14T18:15:52;100375.03;;;8.75;49.68
8699;BME280;4386;51.236;6.742;2023-03-14T18:16:55;100374.31;;;8.73;49.64
8699;BME280;4386;51.236;6.742;2023-03-14T18:17:58;100379.94;;;8.69;49.47
8699;BME280;4386;51.236;6.742;2023-03-14T18:19:00;100374.97;;;8.64;49.18
8699;BME280;4386;51.236;6.742;2023-03-14T18:20:03;100371.63;;;8.62;49.29
8699;BME280;4386;51.236;6.742;2023-03-14T18:21:05;100393.72;;;8.61;49.54
8699;BME280;4386;51.236;6.742;2023-03-14T18:22:08;100392.28;;;8.57;49.54
8699;BME280;4386;51.236;6.742;2023-03-14T18:23:10;100385.41;;;8.55;49.36
8699;BME280;4386;51.236;6.742;2023-03-14T18:24:12;100386.47;;;8.52;49.31
8699;BME280;4386;51.236;6.742;2023-03-14T18:25:14;100385.75;;;8.50;49.41
8699;BME280;4386;51.236;6.742;2023-03-14T18:26:17;100386.00;;;8.47;49.02
8699;BME280;4386;51.236;6.742;2023-03-14T18:27:18;100390.44;;;8.47;49.09
8699;BME280;4386;51.236;6.742;2023-03-14T18:28:21;100397.59;;;8.45;49.30
8699;BME280;4386;51.236;6.742;2023-03-14T18:29:23;100399.44;;;8.44;49.37
8699;BME280;4386;51.236;6.742;2023-03-14T18:30:26;100397.75;;;8.43;49.34
8699;BME280;4386;51.236;6.742;2023-03-14T18:31:27;100396.91;;;8.43;49.38
8699;BME280;4386;51.236;6.742;2023-03-14T18:32:33;100404.91;;;8.41;49.17
8699;BME280;4386;51.236;6.742;2023-03-14T18:33:35;100407.56;;;8.41;49.01
8699;BME280;4386;51.236;6.742;2023-03-14T18:34:39;100410.19;;;8.41;49.32
8699;BME280;4386;51.236;6.742;2023-03-14T18:35:43;100412.13;;;8.39;49.29
8699;BME280;4386;51.236;6.742;2023-03-14T18:36:46;100414.75;;;8.39;49.14
8699;BME280;4386;51.236;6.742;2023-03-14T18:37:47;100419.31;;;8.37;49.19
8699;BME280;4386;51.236;6.742;2023-03-14T18:38:50;100416.78;;;8.35;49.19
8699;BME280;4386;51.236;6.742;2023-03-14T18:39:56;100422.91;;;8.36;49.45
8699;BME280;4386;51.236;6.742;2023-03-14T18:41:03;100426.41;;;8.36;49.53
8699;BME280;4386;51.236;6.742;2023-03-14T18:42:05;100428.19;;;8.36;49.82
8699;BME280;4386;51.236;6.742;2023-03-14T18:43:08;100428.19;;;8.36;49.99
8699;BME280;4386;51.236;6.742;2023-03-14T18:44:11;100429.03;;;8.36;49.71
8699;BME280;4386;51.236;6.742;2023-03-14T18:45:14;100440.44;;;8.37;50.02
8699;BME280;4386;51.236;6.742;2023-03-14T18:46:19;100440.44;;;8.37;50.02
8699;BME280;4386;51.236;6.742;2023-03-14T18:47:22;100442.22;;;8.36;50.05
8699;BME280;4386;51.236;6.742;2023-03-14T18:48:28;100437.06;;;8.35;49.73
8699;BME280;4386;51.236;6.742;2023-03-14T18:49:30;100444.97;;;8.35;50.03
8699;BME280;4386;51.236;6.742;2023-03-14T18:50:36;100442.34;;;8.35;50.27
8699;BME280;4386;51.236;6.742;2023-03-14T18:51:37;100441.47;;;8.34;50.30
8699;BME280;4386;51.236;6.742;2023-03-14T18:52:40;100441.63;;;8.33;50.42
8699;BME280;4386;51.236;6.742;2023-03-14T18:53:43;100445.94;;;8.34;50.50
8699;BME280;4386;51.236;6.742;2023-03-14T18:54:47;100447.63;;;8.35;50.45
8699;BME280;4386;51.236;6.742;2023-03-14T18:55:53;100451.09;;;8.35;50.71
8699;BME280;4386;51.236;6.742;2023-03-14T18:56:54;100444.03;;;8.36;50.75
8699;BME280;4386;51.236;6.742;2023-03-14T18:57:58;100445.72;;;8.37;50.68
8699;BME280;4386;51.236;6.742;2023-03-14T18:58:59;100449.31;;;8.36;50.99
8699;BME280;4386;51.236;6.742;2023-03-14T19:00:03;100445.72;;;8.37;51.11
8699;BME280;4386;51.236;6.742;2023-03-14T19:01:18;100451.09;;;8.35;51.27
8699;BME280;4386;51.236;6.742;2023-03-14T19:02:21;100455.66;;;8.33;51.44
8699;BME280;4386;51.236;6.742;2023-03-14T19:03:24;100457.56;;;8.31;51.08
8699;BME280;4386;51.236;6.742;2023-03-14T19:04:28;100458.63;;;8.29;51.22
8699;BME280;4386;51.236;6.742;2023-03-14T19:05:31;100461.38;;;8.27;51.32
8699;BME280;4386;51.236;6.742;2023-03-14T19:06:34;100457.97;;;8.25;51.42
8699;BME280;4386;51.236;6.742;2023-03-14T19:07:35;100467.69;;;8.25;51.50
8699;BME280;4386;51.236;6.742;2023-03-14T19:08:39;100464.31;;;8.23;51.73
8699;BME280;4386;51.236;6.742;2023-03-14T19:09:42;100470.53;;;8.22;51.57
8699;BME280;4386;51.236;6.742;2023-03-14T19:10:45;100474.16;;;8.21;51.62
8699;BME280;4386;51.236;6.742;2023-03-14T19:11:46;100479.53;;;8.19;51.62
8699;BME280;4386;51.236;6.742;2023-03-14T19:12:49;100480.59;;;8.17;51.82
8699;BME280;4386;51.236;6.742;2023-03-14T19:13:52;100473.63;;;8.16;51.84
8699;BME280;4386;51.236;6.742;2023-03-14T19:14:55;100484.19;;;8.16;52.01
8699;BME280;4386;51.236;6.742;2023-03-14T19:15:59;100482.50;;;8.15;52.01
8699;BME280;4386;51.236;6.742;2023-03-14T19:17:01;100482.50;;;8.15;52.13
8699;BME280;4386;51.236;6.742;2023-03-14T19:18:04;100490.41;;;8.15;51.81
8699;BME280;4386;51.236;6.742;2023-03-14T19:19:09;100496.66;;;8.14;52.03
8699;BME280;4386;51.236;6.742;2023-03-14T19:20:13;100494.97;;;8.13;51.91
8699;BME280;4386;51.236;6.742;2023-03-14T19:21:25;100495.81;;;8.13;51.99
8699;BME280;4386;51.236;6.742;2023-03-14T19:22:28;100494.25;;;8.11;51.80
8699;BME280;4386;51.236;6.742;2023-03-14T19:23:38;100495.91;;;8.12;51.83
8699;BME280;4386;51.236;6.742;2023-03-14T19:24:39;100496.88;;;8.11;52.03
8699;BME280;4386;51.236;6.742;2023-03-14T19:25:42;100495.28;;;8.08;51.70
8699;BME280;4386;51.236;6.742;2023-03-14T19:26:45;100496.25;;;8.07;52.04
8699;BME280;4386;51.236;6.742;2023-03-14T19:27:48;100504.28;;;8.06;51.82
8699;BME280;4386;51.236;6.742;2023-03-14T19:28:51;100506.19;;;8.04;51.82
8699;BME280;4386;51.236;6.742;2023-03-14T19:29:53;100500.06;;;8.03;52.13
8699;BME280;4386;51.236;6.742;2023-03-14T19:31:05;100513.34;;;8.02;52.13
8699;BME280;4386;51.236;6.742;2023-03-14T19:32:08;100515.25;;;8.00;51.77
8699;BME280;4386;51.236;6.742;2023-03-14T19:33:12;100508.28;;;7.99;52.19
8699;BME280;4386;51.236;6.742;2023-03-14T19:34:14;100520.75;;;7.97;52.05
8699;BME280;4386;51.236;6.742;2023-03-14T19:35:18;100523.41;;;7.97;52.54
8699;BME280;4386;51.236;6.742;2023-03-14T19:36:22;100528.78;;;7.95;52.10
8699;BME280;4386;51.236;6.742;2023-03-14T19:37:25;100527.94;;;7.95;52.35
8699;BME280;4386;51.236;6.742;2023-03-14T19:38:26;100534.25;;;7.92;52.11
8699;BME280;4386;51.236;6.742;2023-03-14T19:39:29;100534.47;;;7.89;52.44
8699;BME280;4386;51.236;6.742;2023-03-14T19:40:31;100532.81;;;7.88;52.15
8699;BME280;4386;51.236;6.742;2023-03-14T19:41:33;100534.69;;;7.86;52.71
8699;BME280;4386;51.236;6.742;2023-03-14T19:42:35;100541.03;;;7.83;52.51
8699;BME280;4386;51.236;6.742;2023-03-14T19:43:38;100535.03;;;7.81;52.31
8699;BME280;4386;51.236;6.742;2023-03-14T19:44:39;100536.81;;;7.81;53.04
8699;BME280;4386;51.236;6.742;2023-03-14T19:45:42;100541.25;;;7.80;52.43
8699;BME280;4386;51.236;6.742;2023-03-14T19:46:44;100550.97;;;7.80;52.63
8699;BME280;4386;51.236;6.742;2023-03-14T19:47:47;100542.31;;;7.78;53.01
8699;BME280;4386;51.236;6.742;2023-03-14T19:48:50;100550.31;;;7.76;53.02
8699;BME280;4386;51.236;6.742;2023-03-14T19:49:54;100552.97;;;7.76;53.21
8699;BME280;4386;51.236;6.742;2023-03-14T19:50:59;100553.09;;;7.75;53.06
8699;BME280;4386;51.236;6.742;2023-03-14T19:52:02;100543.47;;;7.74;52.99
8699;BME280;4386;51.236;6.742;2023-03-14T19:53:05;100552.25;;;7.74;53.19
8699;BME280;4386;51.236;6.742;2023-03-14T19:54:08;100554.03;;;7.74;53.04
8699;BME280;4386;51.236;6.742;2023-03-14T19:55:11;100554.97;;;7.73;53.23
8699;BME280;4386;51.236;6.742;2023-03-14T19:56:13;100547.91;;;7.73;53.15
8699;BME280;4386;51.236;6.742;2023-03-14T19:57:16;100559.38;;;7.72;53.46
8699;BME280;4386;51.236;6.742;2023-03-14T19:58:18;100560.44;;;7.70;53.26
8699;BME280;4386;51.236;6.742;2023-03-14T19:59:21;100559.59;;;7.69;53.40
8699;BME280;4386;51.236;6.742;2023-03-14T20:00:24;100567.63;;;7.68;53.40
8699;BME280;4386;51.236;6.742;2023-03-14T20:01:27;100570.38;;;7.66;53.53
8699;BME280;4386;51.236;6.742;2023-03-14T20:02:30;100566.16;;;7.64;53.75
8699;BME280;4386;51.236;6.742;2023-03-14T20:03:42;100564.56;;;7.61;53.51
8699;BME280;4386;51.236;6.742;2023-03-14T20:04:45;100571.84;;;7.58;54.04
8699;BME280;4386;51.236;6.742;2023-03-14T20:05:47;100564.03;;;7.56;53.94
8699;BME280;4386;51.236;6.742;2023-03-14T20:06:51;100564.25;;;7.53;53.83
8699;BME280;4386;51.236;6.742;2023-03-14T20:07:53;100564.34;;;7.52;54.10
8699;BME280;4386;51.236;6.742;2023-03-14T20:08:56;100567.94;;;7.51;54.11
8699;BME280;4386;51.236;6.742;2023-03-14T20:09:59;100570.69;;;7.49;53.99
8699;BME280;4386;51.236;6.742;2023-03-14T20:11:02;100567.28;;;7.47;54.09
8699;BME280;4386;51.236;6.742;2023-03-14T20:12:05;100577.97;;;7.46;54.55
8699;BME280;4386;51.236;6.742;2023-03-14T20:13:08;100575.41;;;7.44;54.54
8699;BME280;4386;51.236;6.742;2023-03-14T20:14:21;100575.41;;;7.44;54.80
8699;BME280;4386;51.236;6.742;2023-03-14T20:15:24;100583.44;;;7.43;54.73
8699;BME280;4386;51.236;6.742;2023-03-14T20:16:26;100588.81;;;7.41;54.75
8699;BME280;4386;51.236;6.742;2023-03-14T20:17:29;100588.06;;;7.39;54.88
8699;BME280;4386;51.236;6.742;2023-03-14T20:18:31;100592.50;;;7.39;54.92
8699;BME280;4386;51.236;6.742;2023-03-14T20:19:34;100595.22;;;7.37;55.30
8699;BME280;4386;51.236;6.742;2023-03-14T20:20:38;100590.91;;;7.36;54.94
8699;BME280;4386;51.236;6.742;2023-03-14T20:21:40;100595.44;;;7.34;55.06
8699;BME280;4386;51.236;6.742;2023-03-14T20:22:44;100591.09;;;7.33;54.89
8699;BME280;4386;51.236;6.742;2023-03-14T20:23:47;100590.38;;;7.31;55.24
8699;BME280;4386;51.236;6.742;2023-03-14T20:24:49;100589.50;;;7.30;55.06
8699;BME280;4386;51.236;6.742;2023-03-14T20:25:53;100592.28;;;7.29;55.39
8699;BME280;4386;51.236;6.742;2023-03-14T20:26:56;100593.19;;;7.28;55.14
8699;BME280;4386;51.236;6.742;2023-03-14T20:27:58;100601.13;;;7.28;55.52
8699;BME280;4386;51.236;6.742;2023-03-14T20:29:02;100607.44;;;7.25;55.24
8699;BME280;4386;51.236;6.742;2023-03-14T20:30:08;100595.19;;;7.24;55.09
8699;BME280;4386;51.236;6.742;2023-03-14T20:31:13;100597.94;;;7.23;55.24
8699;BME280;4386;51.236;6.742;2023-03-14T20:32:15;100600.69;;;7.21;55.46
8699;BME280;4386;51.236;6.742;2023-03-14T20:33:19;100603.31;;;7.21;55.61
8699;BME280;4386;51.236;6.742;2023-03-14T20:34:21;100604.25;;;7.20;55.62
8699;BME280;4386;51.236;6.742;2023-03-14T20:35:23;100611.31;;;7.20;56.15
8699;BME280;4386;51.236;6.742;2023-03-14T20:36:26;100611.41;;;7.18;55.76
8699;BME280;4386;51.236;6.742;2023-03-14T20:37:29;100606.22;;;7.17;55.86
8699;BME280;4386;51.236;6.742;2023-03-14T20:38:32;100615.09;;;7.16;55.90
8699;BME280;4386;51.236;6.742;2023-03-14T20:39:35;100621.31;;;7.15;55.65
8699;BME280;4386;51.236;6.742;2023-03-14T20:40:36;100615.19;;;7.14;55.92
8699;BME280;4386;51.236;6.742;2023-03-14T20:41:39;100609.19;;;7.12;56.12
8699;BME280;4386;51.236;6.742;2023-03-14T20:42:42;100610.97;;;7.12;55.69
8699;BME280;4386;51.236;6.742;2023-03-14T20:43:45;100605.78;;;7.10;56.13
8699;BME280;4386;51.236;6.742;2023-03-14T20:44:47;100608.53;;;7.09;56.21
8699;BME280;4386;51.236;6.742;2023-03-14T20:45:51;100605.16;;;7.07;56.27
8699;BME280;4386;51.236;6.742;2023-03-14T20:46:53;100614.75;;;7.08;56.34
8699;BME280;4386;51.236;6.742;2023-03-14T20:47:58;100613.06;;;7.07;56.33
8699;BME280;4386;51.236;6.742;2023-03-14T20:48:59;100621.81;;;7.07;56.09
8699;BME280;4386;51.236;6.742;2023-03-14T20:50:03;100619.28;;;7.06;56.35
8699;BME280;4386;51.236;6.742;2023-03-14T20:51:05;100614.22;;;7.03;56.26
8699;BME280;4386;51.236;6.742;2023-03-14T20:52:08;100615.88;;;7.04;56.47
8699;BME280;4386;51.236;6.742;2023-03-14T20:53:10;100616.00;;;7.02;56.25
8699;BME280;4386;51.236;6.742;2023-03-14T20:54:14;100616.00;;;7.02;56.63
8699;BME280;4386;51.236;6.742;2023-03-14T20:55:15;100618.72;;;7.01;56.16
8699;BME280;4386;51.236;6.742;2023-03-14T20:56:18;100617.88;;;7.00;56.41
8699;BME280;4386;51.236;6.742;2023-03-14T20:57:20;100617.88;;;7.00;56.08
8699;BME280;4386;51.236;6.742;2023-03-14T20:58:23;100622.31;;;7.00;56.11
8699;BME280;4386;51.236;6.742;2023-03-14T20:59:25;100614.50;;;6.98;56.61
8699;BME280;4386;51.236;6.742;2023-03-14T21:00:28;100622.41;;;6.98;56.58
8699;BME280;4386;51.236;6.742;2023-03-14T21:01:31;100625.16;;;6.97;56.23
8699;BME280;4386;51.236;6.742;2023-03-14T21:02:33;100634.00;;;6.96;56.28
8699;BME280;4386;51.236;6.742;2023-03-14T21:03:35;100622.69;;;6.94;56.19
8699;BME280;4386;51.236;6.742;2023-03-14T21:04:38;100633.22;;;6.94;56.43
8699;BME280;4386;51.236;6.742;2023-03-14T21:05:40;100632.50;;;6.92;55.98
8699;BME280;4386;51.236;6.742;2023-03-14T21:06:53;100636.06;;;6.91;56.19
8699;BME280;4386;51.236;6.742;2023-03-14T21:07:55;100635.25;;;6.90;56.16
8699;BME280;4386;51.236;6.742;2023-03-14T21:08:58;100637.97;;;6.89;56.47
8699;BME280;4386;51.236;6.742;2023-03-14T21:10:09;100636.38;;;6.86;56.27
8699;BME280;4386;51.236;6.742;2023-03-14T21:11:12;100631.19;;;6.85;56.36
8699;BME280;4386;51.236;6.742;2023-03-14T21:12:14;100631.19;;;6.85;56.15
8699;BME280;4386;51.236;6.742;2023-03-14T21:13:16;100632.16;;;6.84;56.50
8699;BME280;4386;51.236;6.742;2023-03-14T21:14:18;100632.97;;;6.84;56.39
8699;BME280;4386;51.236;6.742;2023-03-14T21:15:22;100631.31;;;6.83;55.98
8699;BME280;4386;51.236;6.742;2023-03-14T21:16:24;100630.47;;;6.82;56.25
8699;BME280;4386;51.236;6.742;2023-03-14T21:17:27;100635.72;;;6.82;56.13
8699;BME280;4386;51.236;6.742;2023-03-14T21:18:29;100634.22;;;6.78;56.47
8699;BME280;4386;51.236;6.742;2023-03-14T21:19:32;100638.56;;;6.79;56.30
8699;BME280;4386;51.236;6.742;2023-03-14T21:20:39;100641.19;;;6.79;56.60
8699;BME280;4386;51.236;6.742;2023-03-14T21:21:42;100637.78;;;6.77;56.69
8699;BME280;4386;51.236;6.742;2023-03-14T21:22:44;100648.44;;;6.76;56.58
8699;BME280;4386;51.236;6.742;2023-03-14T21:23:47;100646.75;;;6.75;56.67
8699;BME280;4386;51.236;6.742;2023-03-14T21:24:48;100642.53;;;6.72;56.62
8699;BME280;4386;51.236;6.742;2023-03-14T21:25:53;100643.44;;;6.71;56.85
8699;BME280;4386;51.236;6.742;2023-03-14T21:26:57;100642.59;;;6.71;56.70
8699;BME280;4386;51.236;6.742;2023-03-14T21:28:02;100650.50;;;6.71;56.85
8699;BME280;4386;51.236;6.742;2023-03-14T21:29:06;100648.91;;;6.68;56.75
8699;BME280;4386;51.236;6.742;2023-03-14T21:30:09;100649.75;;;6.69;56.80
8699;BME280;4386;51.236;6.742;2023-03-14T21:31:12;100650.69;;;6.68;56.83
8699;BME280;4386;51.236;6.742;2023-03-14T21:32:14;100651.66;;;6.67;56.92
8699;BME280;4386;51.236;6.742;2023-03-14T21:33:16;100655.22;;;6.66;56.89
8699;BME280;4386;51.236;6.742;2023-03-14T21:34:18;100649.31;;;6.62;56.86
8699;BME280;4386;51.236;6.742;2023-03-14T21:35:27;100654.56;;;6.62;57.14
8699;BME280;4386;51.236;6.742;2023-03-14T21:36:30;100659.94;;;6.61;57.27
8699;BME280;4386;51.236;6.742;2023-03-14T21:37:32;100653.84;;;6.60;57.08
8699;BME280;4386;51.236;6.742;2023-03-14T21:38:35;100658.34;;;6.58;57.33
8699;BME280;4386;51.236;6.742;2023-03-14T21:39:36;100660.22;;;6.56;57.00
8699;BME280;4386;51.236;6.742;2023-03-14T21:40:39;100656.84;;;6.54;57.16
8699;BME280;4386;51.236;6.742;2023-03-14T21:41:44;100657.69;;;6.55;57.41
8699;BME280;4386;51.236;6.742;2023-03-14T21:42:46;100643.84;;;6.51;57.33
8699;BME280;4386;51.236;6.742;2023-03-14T21:43:48;100649.03;;;6.53;57.19
8699;BME280;4386;51.236;6.742;2023-03-14T21:44:51;100650.81;;;6.52;57.29
8699;BME280;4386;51.236;6.742;2023-03-14T21:45:53;100653.47;;;6.52;57.38
8699;BME280;4386;51.236;6.742;2023-03-14T21:46:55;100663.97;;;6.52;57.15
8699;BME280;4386;51.236;6.742;2023-03-14T21:47:58;100661.34;;;6.52;57.30
8699;BME280;4386;51.236;6.742;2023-03-14T21:48:59;100660.63;;;6.50;57.50
8699;BME280;4386;51.236;6.742;2023-03-14T21:50:03;100660.63;;;6.50;57.58
8699;BME280;4386;51.236;6.742;2023-03-14T21:51:05;100664.19;;;6.49;57.43
8699;BME280;4386;51.236;6.742;2023-03-14T21:52:16;100661.53;;;6.49;57.83
8699;BME280;4386;51.236;6.742;2023-03-14T21:53:19;100666.06;;;6.47;57.63
8699;BME280;4386;51.236;6.742;2023-03-14T21:54:21;100670.47;;;6.47;57.43
8699;BME280;4386;51.236;6.742;2023-03-14T21:55:24;100664.38;;;6.46;57.54
8699;BME280;4386;51.236;6.742;2023-03-14T21:56:26;100667.94;;;6.45;57.84
8699;BME280;4386;51.236;6.742;2023-03-14T21:57:30;100669.63;;;6.46;57.62
8699;BME280;4386;51.236;6.742;2023-03-14T21:58:33;100674.91;;;6.46;57.84
8699;BME280;4386;51.236;6.742;2023-03-14T21:59:37;100671.53;;;6.44;57.61
8699;BME280;4386;51.236;6.742;2023-03-14T22:00:40;100674.16;;;6.44;57.84
8699;BME280;4386;51.236;6.742;2023-03-14T22:01:42;100669.81;;;6.43;57.74
8699;BME280;4386;51.236;6.742;2023-03-14T22:02:46;100675.09;;;6.43;57.97
8699;BME280;4386;51.236;6.742;2023-03-14T22:04:07;100672.47;;;6.43;57.99
8699;BME280;4386;51.236;6.742;2023-03-14T22:05:10;100673.38;;;6.42;58.03
8699;BME280;4386;51.236;6.742;2023-03-14T22:06:21;100671.72;;;6.41;58.01
8699;BME280;4386;51.236;6.742;2023-03-14T22:07:23;100676.03;;;6.42;58.12
8699;BME280;4386;51.236;6.742;2023-03-14T22:08:25;100676.97;;;6.41;58.38
8699;BME280;4386;51.236;6.742;2023-03-14T22:09:29;100675.28;;;6.40;58.16
8699;BME280;4386;51.236;6.742;2023-03-14T22:10:31;100677.91;;;6.40;58.34
8699;BME280;4386;51.236;6.742;2023-03-14T22:11:33;100677.91;;;6.40;58.37
8699;BME280;4386;51.236;6.742;2023-03-14T22:12:37;100681.47;;;6.39;58.16
8699;BME280;4386;51.236;6.742;2023-03-14T22:13:39;100682.41;;;6.38;58.38
8699;BME280;4386;51.236;6.742;2023-03-14T22:14:42;100674.50;;;6.38;58.54
8699;BME280;4386;51.236;6.742;2023-03-14T22:15:44;100678.09;;;6.37;58.42
8699;BME280;4386;51.236;6.742;2023-03-14T22:16:47;100680.75;;;6.37;58.30
8699;BME280;4386;51.236;6.742;2023-03-14T22:17:49;100684.28;;;6.36;58.59
8699;BME280;4386;51.236;6.742;2023-03-14T22:18:52;100683.44;;;6.36;58.46
8699;BME280;4386;51.236;6.742;2023-03-14T22:19:54;100684.28;;;6.36;58.60
8699;BME280;4386;51.236;6.742;2023-03-14T22:20:57;100682.59;;;6.35;58.67
8699;BME280;4386;51.236;6.742;2023-03-14T22:21:59;100682.59;;;6.35;58.30
8699;BME280;4386;51.236;6.742;2023-03-14T22:23:03;100682.59;;;6.35;58.51
8699;BME280;4386;51.236;6.742;2023-03-14T22:24:05;100680.06;;;6.34;58.60
8699;BME280;4386;51.236;6.742;2023-03-14T22:25:08;100685.34;;;6.34;58.85
8699;BME280;4386;51.236;6.742;2023-03-14T22:26:09;100692.38;;;6.33;58.63
8699;BME280;4386;51.236;6.742;2023-03-14T22:27:12;100681.13;;;6.31;58.83
8699;BME280;4386;51.236;6.742;2023-03-14T22:28:16;100681.94;;;6.32;58.83
8699;BME280;4386;51.236;6.742;2023-03-14T22:29:20;100685.41;;;6.32;58.67
8699;BME280;4386;51.236;6.742;2023-03-14T22:30:22;100686.38;;;6.31;58.53
8699;BME280;4386;51.236;6.742;2023-03-14T22:31:25;100689.00;;;6.31;58.77
8699;BME280;4386;51.236;6.742;2023-03-14T22:32:27;100682.03;;;6.30;58.96
8699;BME280;4386;51.236;6.742;2023-03-14T22:33:29;100683.75;;;6.31;58.91
8699;BME280;4386;51.236;6.742;2023-03-14T22:34:32;100684.50;;;6.33;59.12
8699;BME280;4386;51.236;6.742;2023-03-14T22:35:35;100688.06;;;6.32;58.93
8699;BME280;4386;51.236;6.742;2023-03-14T22:36:36;100690.59;;;6.34;59.03
8699;BME280;4386;51.236;6.742;2023-03-14T22:37:39;100689.66;;;6.35;58.87
8699;BME280;4386;51.236;6.742;2023-03-14T22:38:42;100686.19;;;6.34;59.03
8699;BME280;4386;51.236;6.742;2023-03-14T22:39:45;100696.72;;;6.34;59.06
8699;BME280;4386;51.236;6.742;2023-03-14T22:40:47;100693.22;;;6.34;59.04
8699;BME280;4386;51.236;6.742;2023-03-14T22:41:50;100699.34;;;6.34;59.14
8699;BME280;4386;51.236;6.742;2023-03-14T22:42:51;100698.50;;;6.34;59.21
8699;BME280;4386;51.236;6.742;2023-03-14T22:43:55;100702.84;;;6.35;59.07
8699;BME280;4386;51.236;6.742;2023-03-14T22:44:57;100692.47;;;6.32;58.97
8699;BME280;4386;51.236;6.742;2023-03-14T22:46:00;100710.81;;;6.33;58.86
8699;BME280;4386;51.236;6.742;2023-03-14T22:47:02;100703.75;;;6.34;59.05
8699;BME280;4386;51.236;6.742;2023-03-14T22:48:05;100707.44;;;6.31;59.14
8699;BME280;4386;51.236;6.742;2023-03-14T22:49:08;100705.63;;;6.32;59.49
8699;BME280;4386;51.236;6.742;2023-03-14T22:50:11;100709.09;;;6.32;59.57
8699;BME280;4386;51.236;6.742;2023-03-14T22:51:13;100706.56;;;6.31;59.56
8699;BME280;4386;51.236;6.742;2023-03-14T22:52:16;100702.16;;;6.31;59.50
8699;BME280;4386;51.236;6.742;2023-03-14T22:53:17;100702.16;;;6.31;59.31
8699;BME280;4386;51.236;6.742;2023-03-14T22:54:20;100707.44;;;6.31;59.55
8699;BME280;4386;51.236;6.742;2023-03-14T22:55:22;100702.16;;;6.31;59.92
8699;BME280;4386;51.236;6.742;2023-03-14T22:56:25;100709.09;;;6.32;59.60
8699;BME280;4386;51.236;6.742;2023-03-14T22:57:27;100710.81;;;6.33;59.57